Aviation Digital Data Service (ADDS)

Output produced by METARs form (0758 UTC 18 January 2017)
found at http://aviationweather.gov/adds/metars/
 
KBFD 180621Z 1806/1906 28008KT 6SM -RA BR OVC006 
     FM181800 29008KT P6SM OVC007